KMHT/MHT METAR and TAF weather

Enter ICAO airport designator
Station Type Date Time Source
KMHT METAR 2022/01/29 08:53 UTC NOAA

KMHT 290853Z 03013G19KT 9SM -SN SCT029 OVC040 M04/M11 A2993 RMK AO2 SLP154 P0000 60000 T10441106 58034


Station Type Date Time Source
KMHT Decoded METAR 2022/01/29 08:53 UTC NOAA

MANCHESTER AIRPORT, NH, United States (KMHT) 42-56N 071-26W 81M
Jan 29, 2022 - 03:53 AM EST / 2022.01.29 0853 UTC
Wind: from the NNE (030 degrees) at 15 MPH (13 KT) gusting to 22 MPH (19 KT):0
Visibility: 9 mile(s):0
Sky conditions: overcast
Weather: light snow
Precipitation last hour: A trace
Temperature: 24.1 F (-4.4 C)
Windchill: 12 F (-11 C):1
Dew Point: 12.9 F (-10.6 C)
Relative Humidity: 61%
Pressure (altimeter): 29.93 in. Hg (1013 hPa)
Pressure tendency: 0.10 inches (3.4 hPa) lower than three hours ago
ob: KMHT 290853Z 03013G19KT 9SM -SN SCT029 OVC040 M04/M11 A2993 RMK AO2 SLP154 P0000 60000 T10441106 58034
cycle: 9

Station Type Date Time Source
KMHT TAF 2022/01/29 09:21 UTC NOAA

TAF
AMD KMHT 290919Z 2909/3006 01012G22KT P6SM -SN SCT030 OVC040
TEMPO 2910/2912 5SM -SN OVC030
FM291200 35020G30KT 1/2SM SN OVC004 WS020/02035KT
FM292300 32017G27KT 2SM -SN BR OVC009

Example: see airport list